sensor_id;sensor_type;location;lat;lon;timestamp;pressure;altitude;pressure_sealevel;temperature;humidity
34034;BME280;63481;52.588;22.472;2023-05-20T00:00:26;101332.52;;;13.20;74.58
34034;BME280;63481;52.588;22.472;2023-05-20T00:01:17;101334.67;;;13.24;74.47
34034;BME280;63481;52.588;22.472;2023-05-20T00:01:51;101334.21;;;13.23;74.65
34034;BME280;63481;52.588;22.472;2023-05-20T00:02:24;101333.05;;;13.21;74.54
34034;BME280;63481;52.588;22.472;2023-05-20T00:02:56;101332.77;;;13.23;74.89
34034;BME280;63481;52.588;22.472;2023-05-20T00:03:28;101331.15;;;13.28;74.44
34034;BME280;63481;52.588;22.472;2023-05-20T00:04:00;101332.57;;;13.32;74.60
34034;BME280;63481;52.588;22.472;2023-05-20T00:04:32;101333.10;;;13.31;74.50
34034;BME280;63481;52.588;22.472;2023-05-20T00:05:04;101331.95;;;13.30;74.56
34034;BME280;63481;52.588;22.472;2023-05-20T00:05:36;101333.68;;;13.29;74.60
34034;BME280;63481;52.588;22.472;2023-05-20T00:06:08;101332.08;;;13.31;74.56
34034;BME280;63481;52.588;22.472;2023-05-20T00:06:40;101332.31;;;13.31;74.29
34034;BME280;63481;52.588;22.472;2023-05-20T00:07:12;101332.36;;;13.31;74.53
34034;BME280;63481;52.588;22.472;2023-05-20T00:07:44;101331.32;;;13.26;74.91
34034;BME280;63481;52.588;22.472;2023-05-20T00:08:17;101336.02;;;13.23;75.08
34034;BME280;63481;52.588;22.472;2023-05-20T00:08:49;101335.49;;;13.23;75.19
34034;BME280;63481;52.588;22.472;2023-05-20T00:09:21;101333.33;;;13.26;74.89
34034;BME280;63481;52.588;22.472;2023-05-20T00:09:53;101334.57;;;13.26;74.68
34034;BME280;63481;52.588;22.472;2023-05-20T00:10:26;101334.34;;;13.24;74.64
34034;BME280;63481;52.588;22.472;2023-05-20T00:10:58;101330.08;;;13.26;74.27
34034;BME280;63481;52.588;22.472;2023-05-20T00:11:29;101330.34;;;13.25;74.33
34034;BME280;63481;52.588;22.472;2023-05-20T00:12:01;101329.04;;;13.27;74.23
34034;BME280;63481;52.588;22.472;2023-05-20T00:12:33;101332.85;;;13.30;74.37
34034;BME280;63481;52.588;22.472;2023-05-20T00:13:08;101330.12;;;13.27;74.52
34034;BME280;63481;52.588;22.472;2023-05-20T00:13:40;101333.45;;;13.22;74.63
34034;BME280;63481;52.588;22.472;2023-05-20T00:14:12;101329.82;;;13.19;74.79
34034;BME280;63481;52.588;22.472;2023-05-20T00:14:48;101331.48;;;13.15;74.89
34034;BME280;63481;52.588;22.472;2023-05-20T00:15:20;101328.79;;;13.11;74.88
34034;BME280;63481;52.588;22.472;2023-05-20T00:15:52;101330.45;;;13.14;74.65
34034;BME280;63481;52.588;22.472;2023-05-20T00:16:24;101328.58;;;13.11;74.70
34034;BME280;63481;52.588;22.472;2023-05-20T00:16:56;101329.42;;;13.09;74.92
34034;BME280;63481;52.588;22.472;2023-05-20T00:17:27;101324.88;;;13.05;74.92
34034;BME280;63481;52.588;22.472;2023-05-20T00:18:00;101329.48;;;13.08;74.63
34034;BME280;63481;52.588;22.472;2023-05-20T00:18:32;101327.49;;;13.07;74.99
34034;BME280;63481;52.588;22.472;2023-05-20T00:19:04;101325.25;;;13.08;75.07
34034;BME280;63481;52.588;22.472;2023-05-20T00:19:36;101325.38;;;13.05;75.26
34034;BME280;63481;52.588;22.472;2023-05-20T00:20:08;101326.14;;;13.09;74.70
34034;BME280;63481;52.588;22.472;2023-05-20T00:20:40;101327.19;;;13.08;74.41
34034;BME280;63481;52.588;22.472;2023-05-20T00:21:12;101326.59;;;13.06;74.80
34034;BME280;63481;52.588;22.472;2023-05-20T00:21:43;101326.24;;;13.06;74.59
34034;BME280;63481;52.588;22.472;2023-05-20T00:22:15;101326.66;;;13.09;74.62
34034;BME280;63481;52.588;22.472;2023-05-20T00:22:47;101325.58;;;13.08;74.80
34034;BME280;63481;52.588;22.472;2023-05-20T00:23:19;101326.20;;;13.13;74.52
34034;BME280;63481;52.588;22.472;2023-05-20T00:23:51;101324.20;;;13.18;74.28
34034;BME280;63481;52.588;22.472;2023-05-20T00:24:23;101322.91;;;13.17;74.16
34034;BME280;63481;52.588;22.472;2023-05-20T00:24:55;101321.87;;;13.19;73.95
34034;BME280;63481;52.588;22.472;2023-05-20T00:25:27;101323.16;;;13.22;74.06
34034;BME280;63481;52.588;22.472;2023-05-20T00:26:01;101323.98;;;13.20;73.88
34034;BME280;63481;52.588;22.472;2023-05-20T00:26:33;101325.98;;;13.19;73.93
34034;BME280;63481;52.588;22.472;2023-05-20T00:27:05;101322.95;;;13.21;73.83
34034;BME280;63481;52.588;22.472;2023-05-20T00:27:37;101323.23;;;13.20;73.80
34034;BME280;63481;52.588;22.472;2023-05-20T00:28:09;101323.05;;;13.17;73.86
34034;BME280;63481;52.588;22.472;2023-05-20T00:28:41;101322.55;;;13.16;73.56
34034;BME280;63481;52.588;22.472;2023-05-20T00:29:12;101322.92;;;13.16;73.89
34034;BME280;63481;52.588;22.472;2023-05-20T00:29:44;101325.50;;;13.13;74.21
34034;BME280;63481;52.588;22.472;2023-05-20T00:30:16;101326.73;;;13.12;73.72
34034;BME280;63481;52.588;22.472;2023-05-20T00:30:48;101326.56;;;13.12;73.41
34034;BME280;63481;52.588;22.472;2023-05-20T00:31:20;101322.30;;;13.09;74.10
34034;BME280;63481;52.588;22.472;2023-05-20T00:31:52;101329.39;;;13.09;73.90
34034;BME280;63481;52.588;22.472;2023-05-20T00:32:25;101324.77;;;13.06;73.89
34034;BME280;63481;52.588;22.472;2023-05-20T00:32:56;101325.80;;;13.09;73.42
34034;BME280;63481;52.588;22.472;2023-05-20T00:33:29;101326.13;;;13.14;73.20
34034;BME280;63481;52.588;22.472;2023-05-20T00:34:01;101325.09;;;13.14;73.60
34034;BME280;63481;52.588;22.472;2023-05-20T00:34:33;101325.44;;;13.17;73.39
34034;BME280;63481;52.588;22.472;2023-05-20T00:35:05;101326.02;;;13.18;72.82
34034;BME280;63481;52.588;22.472;2023-05-20T00:35:37;101325.37;;;13.11;73.32
34034;BME280;63481;52.588;22.472;2023-05-20T00:36:09;101324.63;;;13.04;73.49
34034;BME280;63481;52.588;22.472;2023-05-20T00:36:41;101322.09;;;13.06;73.57
34034;BME280;63481;52.588;22.472;2023-05-20T00:37:13;101325.83;;;13.05;73.61
34034;BME280;63481;52.588;22.472;2023-05-20T00:37:45;101323.15;;;13.05;73.83
34034;BME280;63481;52.588;22.472;2023-05-20T00:38:17;101328.21;;;13.07;73.21
34034;BME280;63481;52.588;22.472;2023-05-20T00:38:49;101325.16;;;13.11;73.28
34034;BME280;63481;52.588;22.472;2023-05-20T00:39:21;101326.38;;;13.15;72.94
34034;BME280;63481;52.588;22.472;2023-05-20T00:39:53;101327.80;;;13.12;73.20
34034;BME280;63481;52.588;22.472;2023-05-20T00:40:25;101328.16;;;13.09;73.16
34034;BME280;63481;52.588;22.472;2023-05-20T00:40:57;101325.31;;;13.06;73.29
34034;BME280;63481;52.588;22.472;2023-05-20T00:41:28;101327.17;;;13.07;73.31
34034;BME280;63481;52.588;22.472;2023-05-20T00:42:00;101329.20;;;13.07;73.29
34034;BME280;63481;52.588;22.472;2023-05-20T00:42:34;101327.98;;;13.04;73.31
34034;BME280;63481;52.588;22.472;2023-05-20T00:43:06;101323.55;;;13.00;73.33
34034;BME280;63481;52.588;22.472;2023-05-20T00:43:38;101328.95;;;12.98;73.89
34034;BME280;63481;52.588;22.472;2023-05-20T00:44:09;101329.35;;;12.97;73.75
34034;BME280;63481;52.588;22.472;2023-05-20T00:44:42;101325.95;;;12.98;74.00
34034;BME280;63481;52.588;22.472;2023-05-20T00:45:13;101331.31;;;12.94;73.66
34034;BME280;63481;52.588;22.472;2023-05-20T00:45:46;101330.65;;;12.94;73.88
34034;BME280;63481;52.588;22.472;2023-05-20T00:46:18;101328.77;;;12.90;73.50
34034;BME280;63481;52.588;22.472;2023-05-20T00:46:50;101329.77;;;12.87;74.16
34034;BME280;63481;52.588;22.472;2023-05-20T00:47:25;101328.06;;;12.85;74.08
34034;BME280;63481;52.588;22.472;2023-05-20T00:47:57;101327.24;;;12.84;74.43
34034;BME280;63481;52.588;22.472;2023-05-20T00:48:39;101327.05;;;12.85;74.28
34034;BME280;63481;52.588;22.472;2023-05-20T00:49:12;101326.98;;;12.89;74.49
34034;BME280;63481;52.588;22.472;2023-05-20T00:49:44;101327.33;;;12.90;73.95
34034;BME280;63481;52.588;22.472;2023-05-20T00:50:17;101329.48;;;12.91;74.01
34034;BME280;63481;52.588;22.472;2023-05-20T00:50:49;101330.74;;;12.89;74.08
34034;BME280;63481;52.588;22.472;2023-05-20T00:51:21;101324.99;;;12.86;73.81
34034;BME280;63481;52.588;22.472;2023-05-20T00:51:53;101328.27;;;12.85;73.93
34034;BME280;63481;52.588;22.472;2023-05-20T00:52:27;101326.48;;;12.82;74.09
34034;BME280;63481;52.588;22.472;2023-05-20T00:53:00;101327.65;;;12.84;73.98
34034;BME280;63481;52.588;22.472;2023-05-20T00:53:33;101326.59;;;12.80;74.24
34034;BME280;63481;52.588;22.472;2023-05-20T00:54:06;101326.70;;;12.79;74.13
34034;BME280;63481;52.588;22.472;2023-05-20T00:54:41;101325.17;;;12.77;74.14
34034;BME280;63481;52.588;22.472;2023-05-20T00:55:14;101323.27;;;12.78;74.19
34034;BME280;63481;52.588;22.472;2023-05-20T00:55:46;101327.87;;;12.80;73.87
34034;BME280;63481;52.588;22.472;2023-05-20T00:56:19;101324.05;;;12.76;74.09
34034;BME280;63481;52.588;22.472;2023-05-20T00:56:53;101322.05;;;12.75;74.10
34034;BME280;63481;52.588;22.472;2023-05-20T00:57:26;101326.11;;;12.77;73.75
34034;BME280;63481;52.588;22.472;2023-05-20T00:57:58;101326.75;;;12.75;74.16
34034;BME280;63481;52.588;22.472;2023-05-20T00:58:30;101325.41;;;12.76;74.00
34034;BME280;63481;52.588;22.472;2023-05-20T00:59:03;101324.30;;;12.78;73.61
34034;BME280;63481;52.588;22.472;2023-05-20T00:59:36;101326.91;;;12.77;73.86
34034;BME280;63481;52.588;22.472;2023-05-20T01:00:08;101325.11;;;12.74;74.01
34034;BME280;63481;52.588;22.472;2023-05-20T01:00:41;101324.66;;;12.75;74.13
34034;BME280;63481;52.588;22.472;2023-05-20T01:01:13;101325.92;;;12.75;74.31
34034;BME280;63481;52.588;22.472;2023-05-20T01:01:46;101322.91;;;12.74;74.05
34034;BME280;63481;52.588;22.472;2023-05-20T01:02:18;101322.58;;;12.73;73.54
34034;BME280;63481;52.588;22.472;2023-05-20T01:02:50;101324.09;;;12.72;73.71
34034;BME280;63481;52.588;22.472;2023-05-20T01:03:22;101326.47;;;12.75;73.73
34034;BME280;63481;52.588;22.472;2023-05-20T01:03:54;101324.02;;;12.76;74.02
34034;BME280;63481;52.588;22.472;2023-05-20T01:04:26;101322.48;;;12.73;73.94
34034;BME280;63481;52.588;22.472;2023-05-20T01:04:58;101323.92;;;12.71;74.11
34034;BME280;63481;52.588;22.472;2023-05-20T01:05:30;101322.19;;;12.75;74.20
34034;BME280;63481;52.588;22.472;2023-05-20T01:06:02;101322.92;;;12.75;73.93
34034;BME280;63481;52.588;22.472;2023-05-20T01:06:35;101323.58;;;12.74;73.84
34034;BME280;63481;52.588;22.472;2023-05-20T01:07:08;101323.96;;;12.75;73.41
34034;BME280;63481;52.588;22.472;2023-05-20T01:07:40;101325.27;;;12.77;73.92
34034;BME280;63481;52.588;22.472;2023-05-20T01:08:13;101323.73;;;12.77;73.93
34034;BME280;63481;52.588;22.472;2023-05-20T01:08:45;101321.73;;;12.79;73.88
34034;BME280;63481;52.588;22.472;2023-05-20T01:09:17;101324.73;;;12.79;73.99
34034;BME280;63481;52.588;22.472;2023-05-20T01:09:49;101324.34;;;12.76;73.62
34034;BME280;63481;52.588;22.472;2023-05-20T01:10:24;101325.16;;;12.75;73.74
34034;BME280;63481;52.588;22.472;2023-05-20T01:11:03;101326.39;;;12.81;73.81
34034;BME280;63481;52.588;22.472;2023-05-20T01:11:43;101323.61;;;12.85;73.23
34034;BME280;63481;52.588;22.472;2023-05-20T01:12:28;101327.01;;;12.85;73.17
34034;BME280;63481;52.588;22.472;2023-05-20T01:13:04;101326.70;;;12.88;73.63
34034;BME280;63481;52.588;22.472;2023-05-20T01:13:44;101325.09;;;12.88;73.39
34034;BME280;63481;52.588;22.472;2023-05-20T01:14:17;101326.55;;;12.87;73.31
34034;BME280;63481;52.588;22.472;2023-05-20T01:15:00;101327.70;;;12.86;73.41
34034;BME280;63481;52.588;22.472;2023-05-20T01:15:35;101325.48;;;12.80;73.83
34034;BME280;63481;52.588;22.472;2023-05-20T01:16:10;101328.54;;;12.77;73.69
34034;BME280;63481;52.588;22.472;2023-05-20T01:16:42;101328.75;;;12.77;73.51
34034;BME280;63481;52.588;22.472;2023-05-20T01:17:18;101331.10;;;12.78;73.51
34034;BME280;63481;52.588;22.472;2023-05-20T01:17:56;101329.52;;;12.76;73.91
34034;BME280;63481;52.588;22.472;2023-05-20T01:18:31;101328.49;;;12.76;73.90
34034;BME280;63481;52.588;22.472;2023-05-20T01:19:08;101330.54;;;12.74;74.14
34034;BME280;63481;52.588;22.472;2023-05-20T01:19:44;101332.45;;;12.71;74.35
34034;BME280;63481;52.588;22.472;2023-05-20T01:20:16;101334.92;;;12.68;74.29
34034;BME280;63481;52.588;22.472;2023-05-20T01:20:50;101332.29;;;12.67;74.53
34034;BME280;63481;52.588;22.472;2023-05-20T01:21:26;101336.92;;;12.70;74.56
34034;BME280;63481;52.588;22.472;2023-05-20T01:21:59;101335.42;;;12.72;74.53
34034;BME280;63481;52.588;22.472;2023-05-20T01:22:31;101333.95;;;12.73;74.62
34034;BME280;63481;52.588;22.472;2023-05-20T01:23:03;101335.65;;;12.70;74.45
34034;BME280;63481;52.588;22.472;2023-05-20T01:23:39;101334.45;;;12.74;73.69
34034;BME280;63481;52.588;22.472;2023-05-20T01:24:13;101332.72;;;12.74;74.05
34034;BME280;63481;52.588;22.472;2023-05-20T01:24:45;101333.30;;;12.73;74.31
34034;BME280;63481;52.588;22.472;2023-05-20T01:25:20;101335.17;;;12.77;74.16
34034;BME280;63481;52.588;22.472;2023-05-20T01:25:52;101333.73;;;12.77;74.00
34034;BME280;63481;52.588;22.472;2023-05-20T01:26:24;101334.33;;;12.74;74.27
34034;BME280;63481;52.588;22.472;2023-05-20T01:26:57;101336.13;;;12.76;73.91
34034;BME280;63481;52.588;22.472;2023-05-20T01:27:30;101334.95;;;12.79;74.27
34034;BME280;63481;52.588;22.472;2023-05-20T01:28:02;101337.70;;;12.78;73.53
34034;BME280;63481;52.588;22.472;2023-05-20T01:28:36;101333.52;;;12.81;72.76
34034;BME280;63481;52.588;22.472;2023-05-20T01:29:09;101335.62;;;12.86;72.70
34034;BME280;63481;52.588;22.472;2023-05-20T01:29:45;101336.27;;;12.85;72.91
34034;BME280;63481;52.588;22.472;2023-05-20T01:30:21;101335.70;;;12.86;73.07
34034;BME280;63481;52.588;22.472;2023-05-20T01:30:55;101333.95;;;12.89;73.33
34034;BME280;63481;52.588;22.472;2023-05-20T01:31:32;101339.42;;;12.88;73.60
34034;BME280;63481;52.588;22.472;2023-05-20T01:32:53;101336.60;;;12.81;73.94
34034;BME280;63481;52.588;22.472;2023-05-20T01:33:28;101339.38;;;12.83;73.96
34034;BME280;63481;52.588;22.472;2023-05-20T01:34:01;101338.20;;;12.81;74.42
34034;BME280;63481;52.588;22.472;2023-05-20T01:34:34;101336.04;;;12.77;74.30
34034;BME280;63481;52.588;22.472;2023-05-20T01:35:08;101337.33;;;12.78;73.66
34034;BME280;63481;52.588;22.472;2023-05-20T01:35:41;101335.92;;;12.74;73.81
34034;BME280;63481;52.588;22.472;2023-05-20T01:36:14;101335.05;;;12.74;73.93
34034;BME280;63481;52.588;22.472;2023-05-20T01:36:46;101335.34;;;12.73;73.83
34034;BME280;63481;52.588;22.472;2023-05-20T01:37:20;101336.33;;;12.77;73.52
34034;BME280;63481;52.588;22.472;2023-05-20T01:37:54;101335.31;;;12.84;73.56
34034;BME280;63481;52.588;22.472;2023-05-20T01:38:28;101335.86;;;12.81;73.53
34034;BME280;63481;52.588;22.472;2023-05-20T01:39:01;101336.95;;;12.82;72.85
34034;BME280;63481;52.588;22.472;2023-05-20T01:39:35;101335.71;;;12.82;73.03
34034;BME280;63481;52.588;22.472;2023-05-20T01:40:11;101333.45;;;12.78;73.29
34034;BME280;63481;52.588;22.472;2023-05-20T01:40:45;101331.23;;;12.78;73.49
34034;BME280;63481;52.588;22.472;2023-05-20T01:41:19;101336.45;;;12.83;72.61
34034;BME280;63481;52.588;22.472;2023-05-20T01:41:53;101332.00;;;12.82;72.89
34034;BME280;63481;52.588;22.472;2023-05-20T01:42:26;101333.09;;;12.79;72.45
34034;BME280;63481;52.588;22.472;2023-05-20T01:43:00;101333.21;;;12.79;72.51
34034;BME280;63481;52.588;22.472;2023-05-20T01:43:33;101335.38;;;12.82;72.66
34034;BME280;63481;52.588;22.472;2023-05-20T01:44:05;101335.70;;;12.86;72.20
34034;BME280;63481;52.588;22.472;2023-05-20T01:44:38;101336.54;;;12.87;72.23
34034;BME280;63481;52.588;22.472;2023-05-20T01:45:10;101336.23;;;12.86;72.42
34034;BME280;63481;52.588;22.472;2023-05-20T01:45:43;101333.26;;;12.85;72.31
34034;BME280;63481;52.588;22.472;2023-05-20T01:46:15;101333.33;;;12.83;72.54
34034;BME280;63481;52.588;22.472;2023-05-20T01:46:50;101333.38;;;12.84;72.28
34034;BME280;63481;52.588;22.472;2023-05-20T01:47:22;101332.04;;;12.80;72.59
34034;BME280;63481;52.588;22.472;2023-05-20T01:47:53;101339.64;;;12.79;72.65
34034;BME280;63481;52.588;22.472;2023-05-20T01:48:26;101334.05;;;12.80;72.70
34034;BME280;63481;52.588;22.472;2023-05-20T01:48:58;101334.40;;;12.79;72.53
34034;BME280;63481;52.588;22.472;2023-05-20T01:49:29;101333.16;;;12.83;72.15
34034;BME280;63481;52.588;22.472;2023-05-20T01:50:01;101334.50;;;12.85;71.98
34034;BME280;63481;52.588;22.472;2023-05-20T01:50:33;101334.89;;;12.89;72.23
34034;BME280;63481;52.588;22.472;2023-05-20T01:51:05;101328.79;;;12.93;71.52
34034;BME280;63481;52.588;22.472;2023-05-20T01:51:37;101333.41;;;12.93;71.55
34034;BME280;63481;52.588;22.472;2023-05-20T01:52:09;101334.20;;;12.88;71.89
34034;BME280;63481;52.588;22.472;2023-05-20T01:52:41;101333.30;;;12.84;72.19
34034;BME280;63481;52.588;22.472;2023-05-20T01:53:13;101331.38;;;12.87;71.64
34034;BME280;63481;52.588;22.472;2023-05-20T01:53:46;101331.34;;;12.87;71.52
34034;BME280;63481;52.588;22.472;2023-05-20T01:54:18;101333.33;;;12.88;71.83
34034;BME280;63481;52.588;22.472;2023-05-20T01:54:50;101331.64;;;12.89;71.96
34034;BME280;63481;52.588;22.472;2023-05-20T01:55:22;101331.46;;;12.86;71.93
34034;BME280;63481;52.588;22.472;2023-05-20T01:55:55;101332.69;;;12.85;71.99
34034;BME280;63481;52.588;22.472;2023-05-20T01:56:27;101331.25;;;12.86;72.04
34034;BME280;63481;52.588;22.472;2023-05-20T01:56:59;101332.13;;;12.88;72.03
34034;BME280;63481;52.588;22.472;2023-05-20T01:57:31;101329.83;;;12.88;71.93
34034;BME280;63481;52.588;22.472;2023-05-20T01:58:03;101329.52;;;12.87;72.08
34034;BME280;63481;52.588;22.472;2023-05-20T01:58:36;101333.80;;;12.90;72.26
34034;BME280;63481;52.588;22.472;2023-05-20T01:59:08;101331.91;;;12.94;72.06
34034;BME280;63481;52.588;22.472;2023-05-20T01:59:40;101332.45;;;12.91;72.36
34034;BME280;63481;52.588;22.472;2023-05-20T02:00:12;101331.57;;;12.89;72.69
34034;BME280;63481;52.588;22.472;2023-05-20T02:00:49;101330.38;;;12.85;72.75
34034;BME280;63481;52.588;22.472;2023-05-20T02:01:20;101334.50;;;12.80;73.10
34034;BME280;63481;52.588;22.472;2023-05-20T02:01:52;101333.55;;;12.75;73.03
34034;BME280;63481;52.588;22.472;2023-05-20T02:02:24;101331.13;;;12.75;73.30
34034;BME280;63481;52.588;22.472;2023-05-20T02:02:56;101330.15;;;12.77;73.45
34034;BME280;63481;52.588;22.472;2023-05-20T02:03:28;101334.20;;;12.79;72.68
34034;BME280;63481;52.588;22.472;2023-05-20T02:04:00;101330.40;;;12.83;72.25
34034;BME280;63481;52.588;22.472;2023-05-20T02:04:32;101332.19;;;12.86;72.27
34034;BME280;63481;52.588;22.472;2023-05-20T02:05:04;101331.29;;;12.85;72.55
34034;BME280;63481;52.588;22.472;2023-05-20T02:05:36;101329.88;;;12.85;72.47
34034;BME280;63481;52.588;22.472;2023-05-20T02:06:09;101334.20;;;12.84;72.17
34034;BME280;63481;52.588;22.472;2023-05-20T02:06:41;101331.70;;;12.84;72.23
34034;BME280;63481;52.588;22.472;2023-05-20T02:07:17;101333.13;;;12.83;72.57
34034;BME280;63481;52.588;22.472;2023-05-20T02:07:52;101335.09;;;12.82;72.59
34034;BME280;63481;52.588;22.472;2023-05-20T02:08:25;101332.08;;;12.80;72.70
34034;BME280;63481;52.588;22.472;2023-05-20T02:08:57;101334.15;;;12.78;73.08
34034;BME280;63481;52.588;22.472;2023-05-20T02:09:29;101336.08;;;12.77;73.43
34034;BME280;63481;52.588;22.472;2023-05-20T02:10:01;101332.92;;;12.79;72.98
34034;BME280;63481;52.588;22.472;2023-05-20T02:10:33;101336.88;;;12.77;72.91
34034;BME280;63481;52.588;22.472;2023-05-20T02:11:05;101334.27;;;12.78;73.17
34034;BME280;63481;52.588;22.472;2023-05-20T02:11:37;101332.55;;;12.78;73.14
34034;BME280;63481;52.588;22.472;2023-05-20T02:12:09;101333.01;;;12.78;73.11
34034;BME280;63481;52.588;22.472;2023-05-20T02:12:46;101335.08;;;12.80;73.03
34034;BME280;63481;52.588;22.472;2023-05-20T02:13:20;101334.16;;;12.79;73.31
34034;BME280;63481;52.588;22.472;2023-05-20T02:13:52;101332.27;;;12.76;73.51
34034;BME280;63481;52.588;22.472;2023-05-20T02:14:23;101332.08;;;12.75;73.61
34034;BME280;63481;52.588;22.472;2023-05-20T02:14:55;101329.92;;;12.79;73.66
34034;BME280;63481;52.588;22.472;2023-05-20T02:15:28;101333.11;;;12.76;73.98
34034;BME280;63481;52.588;22.472;2023-05-20T02:16:01;101330.50;;;12.74;73.71
34034;BME280;63481;52.588;22.472;2023-05-20T02:16:33;101332.33;;;12.71;73.81
34034;BME280;63481;52.588;22.472;2023-05-20T02:17:05;101330.24;;;12.69;74.12
34034;BME280;63481;52.588;22.472;2023-05-20T02:17:37;101333.27;;;12.72;73.76
34034;BME280;63481;52.588;22.472;2023-05-20T02:18:10;101330.44;;;12.72;73.79
34034;BME280;63481;52.588;22.472;2023-05-20T02:18:44;101331.23;;;12.75;73.85
34034;BME280;63481;52.588;22.472;2023-05-20T02:19:21;101332.96;;;12.72;73.93
34034;BME280;63481;52.588;22.472;2023-05-20T02:19:54;101330.73;;;12.75;73.56
34034;BME280;63481;52.588;22.472;2023-05-20T02:20:25;101330.52;;;12.73;73.74
34034;BME280;63481;52.588;22.472;2023-05-20T02:21:02;101335.94;;;12.69;73.83
34034;BME280;63481;52.588;22.472;2023-05-20T02:21:40;101331.73;;;12.69;73.71
34034;BME280;63481;52.588;22.472;2023-05-20T02:22:14;101329.73;;;12.68;73.42
34034;BME280;63481;52.588;22.472;2023-05-20T02:22:48;101333.23;;;12.71;73.27
34034;BME280;63481;52.588;22.472;2023-05-20T02:23:20;101331.24;;;12.70;74.07
34034;BME280;63481;52.588;22.472;2023-05-20T02:23:52;101330.41;;;12.69;74.12
34034;BME280;63481;52.588;22.472;2023-05-20T02:24:24;101331.77;;;12.70;73.80
34034;BME280;63481;52.588;22.472;2023-05-20T02:24:55;101330.09;;;12.69;73.92
34034;BME280;63481;52.588;22.472;2023-05-20T02:25:27;101331.84;;;12.68;73.53
34034;BME280;63481;52.588;22.472;2023-05-20T02:26:00;101328.72;;;12.69;73.58
34034;BME280;63481;52.588;22.472;2023-05-20T02:26:33;101329.73;;;12.71;73.90
34034;BME280;63481;52.588;22.472;2023-05-20T02:27:05;101327.78;;;12.74;73.32
34034;BME280;63481;52.588;22.472;2023-05-20T02:27:38;101328.62;;;12.76;72.97
34034;BME280;63481;52.588;22.472;2023-05-20T02:28:11;101327.30;;;12.76;72.84
34034;BME280;63481;52.588;22.472;2023-05-20T02:28:45;101325.30;;;12.77;72.92
34034;BME280;63481;52.588;22.472;2023-05-20T02:29:17;101328.66;;;12.76;73.07
34034;BME280;63481;52.588;22.472;2023-05-20T02:29:50;101325.82;;;12.77;72.94
34034;BME280;63481;52.588;22.472;2023-05-20T02:30:23;101326.50;;;12.75;73.14
34034;BME280;63481;52.588;22.472;2023-05-20T02:30:55;101325.73;;;12.74;72.97
34034;BME280;63481;52.588;22.472;2023-05-20T02:31:27;101326.38;;;12.73;73.01
34034;BME280;63481;52.588;22.472;2023-05-20T02:32:00;101328.98;;;12.71;73.00
34034;BME280;63481;52.588;22.472;2023-05-20T02:32:33;101326.94;;;12.67;73.18
34034;BME280;63481;52.588;22.472;2023-05-20T02:33:05;101330.27;;;12.68;73.41
34034;BME280;63481;52.588;22.472;2023-05-20T02:33:37;101330.02;;;12.63;73.91
34034;BME280;63481;52.588;22.472;2023-05-20T02:34:09;101329.20;;;12.62;74.13
34034;BME280;63481;52.588;22.472;2023-05-20T02:34:41;101328.76;;;12.63;73.61
34034;BME280;63481;52.588;22.472;2023-05-20T02:35:13;101326.61;;;12.61;73.92
34034;BME280;63481;52.588;22.472;2023-05-20T02:35:45;101329.56;;;12.61;74.03
34034;BME280;63481;52.588;22.472;2023-05-20T02:36:18;101331.64;;;12.63;73.80
34034;BME280;63481;52.588;22.472;2023-05-20T02:36:51;101327.48;;;12.64;73.98
34034;BME280;63481;52.588;22.472;2023-05-20T02:37:23;101330.81;;;12.69;73.69
34034;BME280;63481;52.588;22.472;2023-05-20T02:37:55;101328.51;;;12.68;73.66
34034;BME280;63481;52.588;22.472;2023-05-20T02:38:27;101332.72;;;12.69;73.79
34034;BME280;63481;52.588;22.472;2023-05-20T02:38:59;101331.39;;;12.73;74.01
34034;BME280;63481;52.588;22.472;2023-05-20T02:39:31;101328.75;;;12.71;74.04
34034;BME280;63481;52.588;22.472;2023-05-20T02:40:04;101329.57;;;12.67;74.27
34034;BME280;63481;52.588;22.472;2023-05-20T02:40:37;101329.68;;;12.61;74.28
34034;BME280;63481;52.588;22.472;2023-05-20T02:41:09;101330.75;;;12.61;74.36
34034;BME280;63481;52.588;22.472;2023-05-20T02:41:41;101331.89;;;12.59;74.54
34034;BME280;63481;52.588;22.472;2023-05-20T02:42:14;101330.64;;;12.57;74.61
34034;BME280;63481;52.588;22.472;2023-05-20T02:42:46;101331.05;;;12.53;74.60
34034;BME280;63481;52.588;22.472;2023-05-20T02:43:18;101332.63;;;12.49;75.05
34034;BME280;63481;52.588;22.472;2023-05-20T02:43:50;101333.64;;;12.47;74.62
34034;BME280;63481;52.588;22.472;2023-05-20T02:44:22;101334.44;;;12.53;74.80
34034;BME280;63481;52.588;22.472;2023-05-20T02:44:54;101332.20;;;12.52;74.86
34034;BME280;63481;52.588;22.472;2023-05-20T02:45:29;101330.20;;;12.50;74.97
34034;BME280;63481;52.588;22.472;2023-05-20T02:46:02;101334.70;;;12.50;74.78
34034;BME280;63481;52.588;22.472;2023-05-20T02:46:34;101332.11;;;12.50;75.01
34034;BME280;63481;52.588;22.472;2023-05-20T02:47:07;101331.91;;;12.55;74.47
34034;BME280;63481;52.588;22.472;2023-05-20T02:47:39;101333.09;;;12.55;74.46
34034;BME280;63481;52.588;22.472;2023-05-20T02:48:11;101332.67;;;12.59;74.77
34034;BME280;63481;52.588;22.472;2023-05-20T02:48:44;101332.33;;;12.57;74.52
34034;BME280;63481;52.588;22.472;2023-05-20T02:49:16;101331.50;;;12.57;74.69
34034;BME280;63481;52.588;22.472;2023-05-20T02:49:48;101331.02;;;12.58;73.56
34034;BME280;63481;52.588;22.472;2023-05-20T02:50:20;101329.50;;;12.63;74.09
34034;BME280;63481;52.588;22.472;2023-05-20T02:50:52;101329.16;;;12.62;74.37